createdAt,value
2018-09-01T00:00:43.804Z,94.10
2018-09-01T00:03:11.856Z,94.40
2018-09-01T00:05:39.920Z,94.70
2018-09-01T00:08:07.976Z,94.70
2018-09-01T00:10:36.027Z,95.10
2018-09-01T00:13:04.092Z,95.40
2018-09-01T00:15:32.139Z,95.80
2018-09-01T00:18:00.200Z,96.10
2018-09-01T00:20:28.244Z,96.40
2018-09-01T00:22:56.299Z,96.70
2018-09-01T00:25:24.344Z,96.90
2018-09-01T00:27:52.412Z,97.40
2018-09-01T00:30:20.472Z,97.40
2018-09-01T00:32:48.530Z,97.60
2018-09-01T00:35:16.580Z,97.90
2018-09-01T00:37:50.120Z,98.10
2018-09-01T00:40:18.196Z,98.40
2018-09-01T00:42:46.331Z,98.60
2018-09-01T00:45:14.379Z,98.90
2018-09-01T00:47:42.442Z,99.30
2018-09-01T00:50:10.495Z,99.60
2018-09-01T00:52:38.883Z,99.70
2018-09-01T00:55:11.189Z,99.80
2018-09-01T00:57:39.253Z,99.90
2018-09-01T01:00:07.328Z,99.90
2018-09-01T01:02:35.401Z,99.90
2018-09-01T01:05:03.460Z,99.90
2018-09-01T01:07:31.540Z,99.90
2018-09-01T01:09:59.589Z,99.90
2018-09-01T01:12:27.635Z,99.90
2018-09-01T01:14:55.671Z,99.90
2018-09-01T01:17:23.756Z,99.90
2018-09-01T01:19:51.795Z,99.90
2018-09-01T01:22:19.842Z,99.90
2018-09-01T01:24:47.892Z,99.90
2018-09-01T01:27:15.947Z,99.90
2018-09-01T01:29:44.005Z,99.90
2018-09-01T01:32:12.100Z,99.90
2018-09-01T01:34:40.172Z,99.90
2018-09-01T01:37:08.247Z,99.90
2018-09-01T01:39:36.327Z,99.90
2018-09-01T01:42:04.396Z,99.90
2018-09-01T01:44:32.432Z,99.90
2018-09-01T01:47:00.682Z,99.90
2018-09-01T01:49:28.738Z,99.90
2018-09-01T01:51:56.780Z,99.90
2018-09-01T01:54:24.836Z,99.90
2018-09-01T01:56:52.931Z,99.90
2018-09-01T01:59:21.028Z,99.90
2018-09-01T02:01:49.085Z,99.90
2018-09-01T02:04:17.143Z,99.90
2018-09-01T02:06:45.194Z,99.90
2018-09-01T02:09:13.261Z,99.90
2018-09-01T02:11:41.378Z,99.90
2018-09-01T02:14:09.439Z,99.90
2018-09-01T02:16:37.512Z,99.90
2018-09-01T02:19:06.229Z,99.90
2018-09-01T02:21:34.270Z,99.90
2018-09-01T02:24:02.335Z,99.90
2018-09-01T02:26:30.400Z,99.90
2018-09-01T02:28:58.467Z,99.90
2018-09-01T02:31:26.525Z,99.90
2018-09-01T02:33:54.585Z,99.90
2018-09-01T02:36:22.629Z,99.90
2018-09-01T02:38:50.667Z,99.90
2018-09-01T02:41:18.716Z,99.90
2018-09-01T02:43:46.781Z,99.90
2018-09-01T02:46:14.841Z,99.90
2018-09-01T02:48:42.904Z,99.90
2018-09-01T02:51:11.014Z,99.90
2018-09-01T02:53:39.081Z,99.90
2018-09-01T02:56:07.124Z,99.90
2018-09-01T02:58:35.180Z,99.90
2018-09-01T03:01:08.656Z,99.90
2018-09-01T03:03:36.731Z,99.90
2018-09-01T03:06:04.808Z,99.90
2018-09-01T03:08:32.923Z,99.90
2018-09-01T03:11:00.996Z,99.90
2018-09-01T03:13:29.053Z,99.90
2018-09-01T03:15:57.116Z,99.90
2018-09-01T03:18:25.186Z,99.90
2018-09-01T03:20:53.240Z,99.90
2018-09-01T03:23:21.301Z,99.90
2018-09-01T03:25:49.338Z,99.90
2018-09-01T03:28:17.402Z,99.90
2018-09-01T03:30:45.461Z,99.90
2018-09-01T03:33:13.557Z,99.90
2018-09-01T03:35:41.611Z,99.90
2018-09-01T03:38:09.682Z,99.90
2018-09-01T03:40:37.737Z,99.90
2018-09-01T03:43:05.800Z,99.90
2018-09-01T03:45:33.857Z,99.90
2018-09-01T03:48:01.919Z,99.90
2018-09-01T03:50:29.968Z,99.90
2018-09-01T03:52:58.107Z,99.90
2018-09-01T03:55:26.144Z,99.90
2018-09-01T03:57:54.209Z,99.90
2018-09-01T04:00:26.653Z,99.90
2018-09-01T04:02:55.302Z,99.90
2018-09-01T04:05:23.363Z,99.90
2018-09-01T04:07:51.410Z,99.90
2018-09-01T04:10:19.461Z,99.90
2018-09-01T04:12:47.512Z,99.90
2018-09-01T04:15:15.572Z,99.90
2018-09-01T04:17:43.654Z,99.90
2018-09-01T04:20:11.706Z,99.90
2018-09-01T04:22:39.760Z,99.90
2018-09-01T04:25:07.820Z,99.90
2018-09-01T04:27:35.864Z,99.90
2018-09-01T04:30:03.968Z,99.90
2018-09-01T04:32:32.041Z,99.90
2018-09-01T04:35:00.081Z,99.90
2018-09-01T04:37:28.201Z,99.90
2018-09-01T04:39:56.271Z,99.90
2018-09-01T04:42:24.367Z,99.90
2018-09-01T04:44:52.429Z,99.90
2018-09-01T04:47:20.498Z,99.90
2018-09-01T04:49:48.584Z,99.90
2018-09-01T04:52:16.636Z,99.90
2018-09-01T04:54:44.796Z,99.90
2018-09-01T04:57:12.857Z,99.90
2018-09-01T04:59:40.904Z,99.90
2018-09-01T05:02:08.960Z,99.90
2018-09-01T05:04:37.030Z,99.90
2018-09-01T05:07:05.072Z,99.90
2018-09-01T05:09:33.152Z,99.90
2018-09-01T05:12:01.204Z,99.90
2018-09-01T05:14:29.277Z,99.90
2018-09-01T05:16:57.355Z,99.90
2018-09-01T05:19:25.435Z,99.90
2018-09-01T05:21:53.491Z,99.90
2018-09-01T05:24:21.569Z,99.90
2018-09-01T05:26:49.632Z,99.90
2018-09-01T05:29:17.683Z,99.90
2018-09-01T05:31:45.723Z,99.90
2018-09-01T05:34:13.917Z,99.90
2018-09-01T05:36:42.010Z,99.90
2018-09-01T05:39:10.175Z,99.10
2018-09-01T05:41:38.540Z,95.60
2018-09-01T05:44:06.627Z,92.50
2018-09-01T05:46:34.888Z,89.50
2018-09-01T05:49:02.953Z,85.10
2018-09-01T05:51:31.029Z,80.40
2018-09-01T05:53:59.091Z,77.30
2018-09-01T05:56:27.150Z,74.00
2018-09-01T05:58:55.225Z,71.50
2018-09-01T06:01:23.273Z,70.00
2018-09-01T06:03:51.336Z,68.40
2018-09-01T06:06:19.589Z,67.20
2018-09-01T06:08:47.444Z,67.10
2018-09-01T06:11:15.493Z,68.90
2018-09-01T06:13:43.544Z,70.80
2018-09-01T06:16:11.603Z,73.30
2018-09-01T06:18:39.664Z,76.00
2018-09-01T06:21:07.708Z,78.70
2018-09-01T06:23:35.784Z,80.60
2018-09-01T06:26:03.825Z,81.90
2018-09-01T06:28:35.263Z,83.90
2018-09-01T06:31:03.309Z,85.40
2018-09-01T06:33:31.364Z,87.70
2018-09-01T06:35:59.437Z,86.90
2018-09-01T06:38:27.480Z,86.80
2018-09-01T06:40:55.620Z,88.00
2018-09-01T06:43:23.792Z,89.10
2018-09-01T06:45:51.878Z,90.20
2018-09-01T06:48:20.032Z,90.60
2018-09-01T06:50:48.108Z,91.00
2018-09-01T06:53:16.452Z,91.30
2018-09-01T06:55:44.565Z,90.70
2018-09-01T06:58:12.621Z,89.00
2018-09-01T07:00:40.684Z,85.30
2018-09-01T07:03:08.730Z,82.80
2018-09-01T07:05:36.783Z,80.10
2018-09-01T07:08:04.864Z,77.40
2018-09-01T07:10:32.912Z,75.70
2018-09-01T07:13:00.975Z,74.50
2018-09-01T07:15:29.028Z,71.90
2018-09-01T07:17:57.064Z,69.90
2018-09-01T07:20:25.120Z,69.60
2018-09-01T07:22:53.179Z,69.10
2018-09-01T07:25:21.240Z,69.40
2018-09-01T07:27:49.274Z,68.30
2018-09-01T07:30:17.447Z,66.70
2018-09-01T07:32:45.396Z,65.20
2018-09-01T07:35:13.468Z,65.50
2018-09-01T07:37:41.529Z,64.50
2018-09-01T07:40:09.627Z,62.90
2018-09-01T07:42:37.717Z,61.30
2018-09-01T07:45:05.780Z,60.50
2018-09-01T07:47:33.840Z,62.10
2018-09-01T07:50:01.993Z,64.80
2018-09-01T07:52:30.003Z,66.70
2018-09-01T07:54:58.068Z,67.20
2018-09-01T07:57:26.140Z,67.20
2018-09-01T07:59:54.308Z,66.10
2018-09-01T08:02:22.357Z,65.30
2018-09-01T08:04:50.427Z,64.00
2018-09-01T08:07:18.537Z,62.90
2018-09-01T08:09:46.558Z,62.00
2018-09-01T08:12:14.608Z,60.80
2018-09-01T08:14:42.703Z,61.90
2018-09-01T08:17:10.745Z,62.00
2018-09-01T08:19:39.081Z,60.00
2018-09-01T08:22:07.220Z,59.20
2018-09-01T08:24:35.779Z,58.00
2018-09-01T08:27:03.857Z,57.90
2018-09-01T08:29:31.900Z,57.60
2018-09-01T08:31:59.953Z,59.00
2018-09-01T08:34:28.004Z,60.20
2018-09-01T08:36:56.064Z,61.50
2018-09-01T08:39:24.103Z,63.10
2018-09-01T08:41:52.155Z,64.80
2018-09-01T08:44:20.210Z,65.30
2018-09-01T08:46:48.264Z,62.80
2018-09-01T08:49:16.321Z,61.80
2018-09-01T08:51:44.478Z,60.70
2018-09-01T08:54:12.531Z,62.20
2018-09-01T08:56:40.685Z,62.50
2018-09-01T08:59:08.646Z,61.30
2018-09-01T09:01:36.788Z,59.50
2018-09-01T09:04:04.881Z,58.80
2018-09-01T09:06:33.046Z,58.60
2018-09-01T09:09:02.138Z,59.40
2018-09-01T09:11:30.203Z,59.60
2018-09-01T09:13:58.256Z,60.10
2018-09-01T09:16:26.321Z,62.30
2018-09-01T09:18:54.364Z,65.20
2018-09-01T09:21:22.450Z,66.20
2018-09-01T09:23:50.549Z,64.80
2018-09-01T09:26:18.736Z,63.50
2018-09-01T09:28:46.998Z,62.00
2018-09-01T09:31:15.185Z,61.50
2018-09-01T09:33:43.420Z,59.30
2018-09-01T09:36:11.547Z,59.20
2018-09-01T09:38:39.716Z,59.10
2018-09-01T09:41:07.769Z,60.40
2018-09-01T09:43:35.825Z,58.80
2018-09-01T09:46:03.901Z,56.50
2018-09-01T09:48:31.973Z,54.20
2018-09-01T09:51:00.053Z,52.20
2018-09-01T09:53:28.245Z,51.50
2018-09-01T09:55:56.300Z,52.80
2018-09-01T09:58:24.444Z,54.20
2018-09-01T10:00:57.829Z,56.10
2018-09-01T10:03:26.017Z,57.30
2018-09-01T10:05:54.091Z,58.30
2018-09-01T10:08:22.152Z,57.50
2018-09-01T10:10:50.216Z,56.20
2018-09-01T10:13:18.575Z,55.50
2018-09-01T10:15:46.655Z,55.70
2018-09-01T10:18:14.666Z,56.70
2018-09-01T10:20:42.712Z,58.30
2018-09-01T10:23:11.119Z,60.00
2018-09-01T10:25:39.164Z,60.00
2018-09-01T10:28:07.238Z,58.50
2018-09-01T10:30:35.339Z,57.70
2018-09-01T10:33:03.457Z,57.30
2018-09-01T10:35:31.521Z,58.10
2018-09-01T10:37:59.606Z,55.90
2018-09-01T10:40:27.647Z,54.00
2018-09-01T10:42:55.914Z,53.60
2018-09-01T10:45:23.969Z,53.40
2018-09-01T10:47:52.048Z,54.80
2018-09-01T10:50:20.100Z,55.60
2018-09-01T10:52:48.155Z,56.20
2018-09-01T10:55:16.295Z,57.00
2018-09-01T10:57:44.583Z,57.80
2018-09-01T11:00:12.960Z,59.60
2018-09-01T11:02:41.033Z,59.60
2018-09-01T11:05:09.217Z,60.60
2018-09-01T11:07:37.320Z,59.50
2018-09-01T11:10:05.382Z,58.00
2018-09-01T11:12:33.438Z,59.50
2018-09-01T11:15:01.593Z,58.50
2018-09-01T11:17:29.808Z,57.60
2018-09-01T11:19:57.833Z,56.90
2018-09-01T11:22:25.901Z,56.70
2018-09-01T11:24:54.934Z,57.30
2018-09-01T11:27:23.240Z,58.20
2018-09-01T11:29:51.296Z,58.30
2018-09-01T11:32:19.426Z,58.80
2018-09-01T11:34:47.476Z,59.10
2018-09-01T11:37:15.531Z,59.30
2018-09-01T11:39:43.583Z,59.80
2018-09-01T11:42:11.680Z,60.30
2018-09-01T11:44:39.745Z,60.00
2018-09-01T11:47:08.075Z,60.00
2018-09-01T11:49:36.151Z,59.90
2018-09-01T11:52:04.286Z,60.10
2018-09-01T11:54:32.304Z,60.40
2018-09-01T11:57:00.389Z,60.40
2018-09-01T11:59:28.469Z,60.10
2018-09-01T12:01:56.527Z,59.00
2018-09-01T12:04:24.591Z,59.20
2018-09-01T12:06:52.821Z,59.40
2018-09-01T12:09:20.871Z,59.00
2018-09-01T12:11:48.950Z,58.50
2018-09-01T12:14:16.992Z,59.60
2018-09-01T12:16:45.046Z,60.50
2018-09-01T12:19:13.156Z,59.90
2018-09-01T12:21:41.244Z,58.50
2018-09-01T12:24:09.312Z,59.80
2018-09-01T12:26:37.366Z,61.00
2018-09-01T12:29:05.412Z,59.90
2018-09-01T12:31:33.468Z,59.00
2018-09-01T12:34:01.568Z,58.50
2018-09-01T12:36:29.620Z,57.90
2018-09-01T12:38:57.721Z,57.30
2018-09-01T12:41:25.917Z,59.40
2018-09-01T12:43:53.962Z,60.00
2018-09-01T12:46:22.012Z,59.60
2018-09-01T12:48:50.175Z,59.60
2018-09-01T12:51:18.344Z,58.40
2018-09-01T12:53:46.384Z,58.50
2018-09-01T12:56:14.432Z,58.20
2018-09-01T12:58:42.483Z,58.20
2018-09-01T13:01:10.549Z,57.70
2018-09-01T13:03:39.275Z,58.00
2018-09-01T13:06:08.266Z,58.20
2018-09-01T13:08:36.317Z,59.50
2018-09-01T13:11:04.353Z,60.30
2018-09-01T13:13:32.402Z,59.80
2018-09-01T13:16:00.458Z,58.90
2018-09-01T13:18:28.517Z,59.50
2018-09-01T13:20:56.785Z,59.80
2018-09-01T13:23:25.585Z,60.30
2018-09-01T13:25:53.662Z,60.70
2018-09-01T13:28:21.707Z,60.20
2018-09-01T13:30:49.985Z,60.70
2018-09-01T13:33:18.047Z,61.20
2018-09-01T13:35:46.104Z,60.60
2018-09-01T13:38:14.170Z,60.00
2018-09-01T13:40:42.681Z,58.70
2018-09-01T13:43:11.073Z,57.00
2018-09-01T13:45:39.112Z,57.60
2018-09-01T13:48:07.300Z,56.50
2018-09-01T13:50:35.685Z,56.20
2018-09-01T13:53:03.877Z,56.80
2018-09-01T13:55:31.954Z,57.00
2018-09-01T13:58:00.025Z,57.90
2018-09-01T14:00:28.076Z,58.20
2018-09-01T14:02:56.119Z,58.90
2018-09-01T14:05:24.179Z,59.60
2018-09-01T14:07:52.251Z,59.90
2018-09-01T14:10:21.009Z,60.10
2018-09-01T14:12:49.100Z,60.70
2018-09-01T14:15:17.148Z,59.80
2018-09-01T14:17:45.209Z,59.30
2018-09-01T14:20:13.266Z,59.40
2018-09-01T14:22:41.344Z,58.90
2018-09-01T14:25:09.421Z,58.10
2018-09-01T14:27:37.463Z,57.60
2018-09-01T14:30:06.529Z,57.60
2018-09-01T14:32:34.608Z,57.50
2018-09-01T14:35:02.704Z,57.40
2018-09-01T14:37:30.778Z,56.10
2018-09-01T14:39:58.894Z,57.50
2018-09-01T14:42:26.941Z,57.40
2018-09-01T14:44:55.176Z,57.40
2018-09-01T14:47:23.263Z,58.80
2018-09-01T14:49:51.300Z,58.90
2018-09-01T14:52:19.360Z,59.20
2018-09-01T14:54:47.445Z,58.80
2018-09-01T14:57:15.489Z,59.40
2018-09-01T14:59:43.548Z,59.30
2018-09-01T15:02:11.601Z,58.80
2018-09-01T15:04:39.661Z,58.00
2018-09-01T15:07:07.715Z,56.60
2018-09-01T15:09:35.801Z,55.90
2018-09-01T15:12:03.875Z,57.10
2018-09-01T15:14:32.045Z,58.30
2018-09-01T15:17:00.096Z,58.90
2018-09-01T15:19:28.150Z,59.50
2018-09-01T15:21:56.241Z,60.00
2018-09-01T15:24:24.289Z,59.70
2018-09-01T15:26:52.356Z,59.90
2018-09-01T15:29:20.448Z,59.50
2018-09-01T15:31:48.485Z,59.10
2018-09-01T15:34:16.544Z,59.30
2018-09-01T15:36:44.596Z,59.00
2018-09-01T15:39:13.225Z,58.40
2018-09-01T15:41:41.294Z,57.60
2018-09-01T15:44:09.828Z,56.70
2018-09-01T15:46:37.972Z,57.70
2018-09-01T15:49:06.251Z,58.10
2018-09-01T15:51:34.328Z,58.40
2018-09-01T15:54:02.373Z,59.20
2018-09-01T15:56:30.461Z,60.00
2018-09-01T15:58:58.486Z,60.80
2018-09-01T16:01:26.551Z,61.60
2018-09-01T16:03:54.595Z,62.20
2018-09-01T16:06:22.645Z,62.40
2018-09-01T16:08:50.701Z,62.80
2018-09-01T16:11:18.801Z,62.70
2018-09-01T16:13:46.846Z,63.40
2018-09-01T16:16:14.907Z,62.20
2018-09-01T16:18:42.972Z,62.00
2018-09-01T16:21:11.011Z,62.40
2018-09-01T16:23:39.070Z,61.40
2018-09-01T16:26:07.147Z,61.40
2018-09-01T16:28:35.179Z,61.20
2018-09-01T16:31:03.260Z,61.10
2018-09-01T16:33:31.297Z,61.50
2018-09-01T16:35:59.358Z,61.70
2018-09-01T16:38:27.387Z,62.00
2018-09-01T16:40:55.472Z,62.60
2018-09-01T16:43:23.508Z,62.90
2018-09-01T16:45:51.553Z,63.50
2018-09-01T16:48:19.601Z,64.00
2018-09-01T16:50:47.738Z,64.40
2018-09-01T16:53:15.877Z,64.70
2018-09-01T16:55:43.927Z,64.60
2018-09-01T16:58:11.964Z,64.70
2018-09-01T17:00:40.050Z,64.80
2018-09-01T17:03:08.061Z,65.10
2018-09-01T17:05:36.128Z,65.40
2018-09-01T17:08:04.189Z,65.50
2018-09-01T17:10:32.244Z,66.40
2018-09-01T17:13:00.301Z,65.90
2018-09-01T17:15:28.363Z,65.80
2018-09-01T17:17:56.402Z,66.00
2018-09-01T17:20:24.467Z,66.30
2018-09-01T17:22:52.546Z,66.00
2018-09-01T17:25:20.598Z,66.40
2018-09-01T17:27:48.678Z,66.40
2018-09-01T17:30:16.719Z,67.10
2018-09-01T17:32:44.755Z,67.70
2018-09-01T17:35:12.811Z,67.10
2018-09-01T17:37:40.864Z,67.20
2018-09-01T17:40:08.907Z,67.60
2018-09-01T17:42:36.956Z,67.80
2018-09-01T17:45:05.592Z,67.90
2018-09-01T17:47:33.641Z,68.10
2018-09-01T17:50:01.692Z,68.30
2018-09-01T17:52:29.735Z,69.30
2018-09-01T17:54:57.788Z,68.40
2018-09-01T17:57:25.869Z,68.70
2018-09-01T17:59:53.913Z,69.00
2018-09-01T18:02:22.044Z,69.10
2018-09-01T18:04:50.072Z,69.30
2018-09-01T18:07:18.119Z,69.30
2018-09-01T18:09:46.488Z,69.50
2018-09-01T18:12:14.544Z,69.90
2018-09-01T18:14:42.589Z,70.20
2018-09-01T18:17:10.649Z,70.20
2018-09-01T18:19:39.521Z,70.60
2018-09-01T18:22:07.704Z,70.60
2018-09-01T18:24:35.765Z,70.90
2018-09-01T18:27:03.821Z,71.10
2018-09-01T18:29:31.940Z,71.80
2018-09-01T18:32:00.077Z,72.10
2018-09-01T18:34:28.220Z,72.50
2018-09-01T18:36:56.264Z,72.90
2018-09-01T18:39:24.300Z,73.70
2018-09-01T18:41:52.330Z,73.90
2018-09-01T18:44:21.306Z,73.90
2018-09-01T18:46:49.392Z,74.20
2018-09-01T18:49:17.449Z,74.60
2018-09-01T18:51:45.489Z,74.60
2018-09-01T18:54:13.618Z,75.00
2018-09-01T18:56:41.604Z,75.50
2018-09-01T18:59:09.673Z,76.30
2018-09-01T19:01:38.178Z,76.80
2018-09-01T19:04:06.225Z,77.20
2018-09-01T19:06:34.278Z,77.60
2018-09-01T19:09:02.325Z,77.90
2018-09-01T19:11:30.389Z,78.40
2018-09-01T19:13:58.557Z,79.40
2018-09-01T19:16:26.495Z,80.20
2018-09-01T19:18:54.585Z,79.70
2018-09-01T19:21:22.632Z,80.30
2018-09-01T19:23:50.673Z,80.80
2018-09-01T19:26:18.723Z,81.70
2018-09-01T19:28:46.768Z,81.80
2018-09-01T19:31:14.811Z,82.50
2018-09-01T19:33:42.934Z,83.20
2018-09-01T19:36:10.982Z,83.50
2018-09-01T19:38:39.025Z,84.10
2018-09-01T19:41:07.096Z,84.60
2018-09-01T19:43:35.156Z,85.10
2018-09-01T19:46:03.231Z,85.60
2018-09-01T19:48:31.289Z,85.90
2018-09-01T19:50:59.340Z,86.40
2018-09-01T19:53:27.387Z,86.80
2018-09-01T19:55:55.424Z,87.20
2018-09-01T19:58:23.648Z,87.50
2018-09-01T20:00:51.679Z,88.20
2018-09-01T20:03:19.712Z,88.40
2018-09-01T20:05:47.759Z,88.60
2018-09-01T20:08:15.812Z,89.00
2018-09-01T20:10:43.865Z,89.30
2018-09-01T20:13:11.916Z,89.50
2018-09-01T20:15:39.968Z,89.80
2018-09-01T20:18:08.062Z,89.80
2018-09-01T20:20:36.120Z,89.80
2018-09-01T20:23:04.172Z,89.80
2018-09-01T20:25:32.271Z,89.50
2018-09-01T20:28:00.421Z,89.20
2018-09-01T20:30:28.479Z,89.10
2018-09-01T20:32:56.592Z,88.80
2018-09-01T20:35:30.052Z,88.40
2018-09-01T20:37:58.146Z,87.90
2018-09-01T20:40:26.164Z,87.60
2018-09-01T20:42:54.234Z,87.60
2018-09-01T20:45:22.284Z,86.90
2018-09-01T20:47:50.336Z,88.70
2018-09-01T20:50:18.386Z,88.10
2018-09-01T20:52:46.433Z,88.10
2018-09-01T20:55:14.497Z,88.40
2018-09-01T20:57:42.627Z,88.60
2018-09-01T21:00:10.767Z,88.80
2018-09-01T21:02:38.833Z,89.10
2018-09-01T21:05:06.898Z,89.40
2018-09-01T21:07:34.957Z,89.30
2018-09-01T21:10:03.153Z,89.70
2018-09-01T21:12:31.204Z,89.50
2018-09-01T21:14:59.258Z,89.50
2018-09-01T21:17:27.316Z,89.50
2018-09-01T21:19:55.351Z,90.10
2018-09-01T21:22:23.429Z,89.90
2018-09-01T21:24:51.472Z,90.00
2018-09-01T21:27:19.637Z,90.10
2018-09-01T21:29:47.690Z,89.70
2018-09-01T21:32:15.744Z,89.40
2018-09-01T21:34:43.787Z,89.30
2018-09-01T21:37:11.844Z,89.60
2018-09-01T21:39:39.950Z,90.30
2018-09-01T21:42:07.958Z,89.90
2018-09-01T21:44:36.014Z,90.00
2018-09-01T21:47:04.192Z,90.10
2018-09-01T21:49:32.250Z,90.10
2018-09-01T21:52:00.307Z,90.40
2018-09-01T21:54:28.348Z,90.50
2018-09-01T21:56:56.437Z,90.60
2018-09-01T21:59:24.487Z,90.70
2018-09-01T22:02:26.100Z,90.70
2018-09-01T22:04:59.681Z,90.50
2018-09-01T22:07:27.728Z,90.50
2018-09-01T22:09:55.979Z,90.60
2018-09-01T22:12:24.367Z,90.70
2018-09-01T22:14:53.516Z,90.70
2018-09-01T22:17:22.087Z,90.70
2018-09-01T22:19:50.568Z,90.80
2018-09-01T22:22:18.606Z,90.60
2018-09-01T22:24:46.685Z,90.70
2018-09-01T22:27:14.722Z,90.50
2018-09-01T22:29:42.782Z,90.50
2018-09-01T22:32:10.853Z,90.40
2018-09-01T22:34:38.921Z,90.10
2018-09-01T22:37:07.000Z,90.40
2018-09-01T22:39:35.057Z,90.40
2018-09-01T22:42:03.112Z,90.30
2018-09-01T22:44:31.148Z,90.10
2018-09-01T22:47:00.705Z,90.20
2018-09-01T22:49:28.756Z,90.20
2018-09-01T22:51:56.799Z,90.30
2018-09-01T22:54:24.861Z,90.50
2018-09-01T22:56:52.896Z,90.50
2018-09-01T22:59:20.945Z,90.70
2018-09-01T23:01:48.968Z,90.50
2018-09-01T23:04:17.030Z,90.40
2018-09-01T23:06:45.105Z,90.10
2018-09-01T23:09:13.188Z,90.20
2018-09-01T23:11:41.269Z,90.30
2018-09-01T23:14:09.459Z,90.30
2018-09-01T23:16:37.508Z,90.30
2018-09-01T23:19:05.795Z,90.40
2018-09-01T23:21:33.985Z,90.50
2018-09-01T23:24:02.053Z,90.50
2018-09-01T23:26:30.100Z,90.70
2018-09-01T23:28:58.157Z,91.00
2018-09-01T23:31:26.199Z,90.90
2018-09-01T23:33:54.275Z,91.20
2018-09-01T23:36:22.320Z,91.30
2018-09-01T23:38:50.397Z,91.40
2018-09-01T23:41:18.457Z,91.40
2018-09-01T23:43:46.521Z,91.30
2018-09-01T23:46:14.560Z,91.30
2018-09-01T23:48:42.620Z,91.40
2018-09-01T23:51:10.673Z,91.30
2018-09-01T23:53:38.753Z,91.00
2018-09-01T23:56:06.793Z,90.80
2018-09-01T23:58:35.841Z,90.90
